createdAt,value
2018-02-23T00:01:22.368Z,17.67
2018-02-23T00:03:50.438Z,16.20
2018-02-23T00:06:18.483Z,13.90
2018-02-23T00:08:46.173Z,17.60
2018-02-23T00:11:13.843Z,13.23
2018-02-23T00:13:41.912Z,12.90
2018-02-23T00:16:09.953Z,14.20
2018-02-23T00:18:37.611Z,13.00
2018-02-23T00:21:05.258Z,16.73
2018-02-23T00:23:32.936Z,15.00
2018-02-23T00:26:00.599Z,13.70
2018-02-23T00:28:28.298Z,18.67
2018-02-23T00:30:55.971Z,16.57
2018-02-23T00:33:23.647Z,17.30
2018-02-23T00:35:51.299Z,16.70
2018-02-23T00:38:18.954Z,23.30
2018-02-23T00:40:46.630Z,18.00
2018-02-23T00:43:14.286Z,17.70
2018-02-23T00:45:41.957Z,17.83
2018-02-23T00:48:09.646Z,23.23
2018-02-23T00:50:37.310Z,24.60
2018-02-23T00:53:04.971Z,22.07
2018-02-23T00:55:32.675Z,19.00
2018-02-23T00:58:00.720Z,21.87
2018-02-23T01:00:28.381Z,22.20
2018-02-23T01:02:56.044Z,21.90
2018-02-23T01:05:23.763Z,23.77
2018-02-23T01:07:51.763Z,21.80
2018-02-23T01:10:19.917Z,22.43
2018-02-23T01:12:47.624Z,22.60
2018-02-23T01:15:15.680Z,22.33
2018-02-23T01:17:43.335Z,27.67
2018-02-23T01:20:11.022Z,27.13
2018-02-23T01:22:39.082Z,29.47
2018-02-23T01:25:06.744Z,28.30
2018-02-23T01:27:34.420Z,29.83
2018-02-23T01:30:02.479Z,31.77
2018-02-23T01:32:30.158Z,34.30
2018-02-23T01:34:58.221Z,26.57
2018-02-23T01:37:25.894Z,30.70
2018-02-23T01:39:53.954Z,25.93
2018-02-23T01:42:21.639Z,23.40
2018-02-23T01:44:49.308Z,31.50
2018-02-23T01:47:16.970Z,22.47
2018-02-23T01:49:44.626Z,21.97
2018-02-23T01:52:12.297Z,20.37
2018-02-23T01:54:39.940Z,20.20
2018-02-23T01:57:08.002Z,20.87
2018-02-23T01:59:36.071Z,23.83
2018-02-23T02:02:03.767Z,20.80
2018-02-23T02:04:31.427Z,23.23
2018-02-23T02:06:59.100Z,21.73
2018-02-23T02:09:26.756Z,26.77
2018-02-23T02:11:54.512Z,27.53
2018-02-23T02:14:22.177Z,28.80
2018-02-23T02:16:49.840Z,16.80
2018-02-23T02:19:17.499Z,19.00
2018-02-23T02:21:45.168Z,28.33
2018-02-23T02:24:12.830Z,17.80
2018-02-23T02:26:40.488Z,23.47
2018-02-23T02:29:08.137Z,21.23
2018-02-23T02:31:35.813Z,20.87
2018-02-23T02:34:03.474Z,24.00
2018-02-23T02:36:31.137Z,23.27
2018-02-23T02:38:58.882Z,22.57
2018-02-23T02:41:26.976Z,25.57
2018-02-23T02:43:54.648Z,22.10
2018-02-23T02:46:22.403Z,21.27
2018-02-23T02:48:50.107Z,20.60
2018-02-23T02:51:17.795Z,24.93
2018-02-23T02:53:45.838Z,23.60
2018-02-23T02:56:13.503Z,28.10
2018-02-23T02:58:41.167Z,24.93
2018-02-23T03:01:08.850Z,25.13
2018-02-23T03:03:36.506Z,36.67
2018-02-23T03:06:04.173Z,27.40
2018-02-23T03:08:31.835Z,22.67
2018-02-23T03:10:59.532Z,27.03
2018-02-23T03:13:27.179Z,28.37
2018-02-23T03:15:55.233Z,25.27
2018-02-23T03:18:22.884Z,27.00
2018-02-23T03:20:50.692Z,24.27
2018-02-23T03:23:18.356Z,27.50
2018-02-23T03:25:46.030Z,23.23
2018-02-23T03:28:13.677Z,31.60
2018-02-23T03:30:41.388Z,30.67
2018-02-23T03:33:09.062Z,28.77
2018-02-23T03:35:36.736Z,25.90
2018-02-23T03:38:04.784Z,31.00
2018-02-23T03:40:32.449Z,29.40
2018-02-23T03:43:00.121Z,35.77
2018-02-23T03:45:27.803Z,28.57
2018-02-23T03:47:55.850Z,33.10
2018-02-23T03:50:23.526Z,37.93
2018-02-23T03:52:52.300Z,27.83
2018-02-23T03:55:19.944Z,37.47
2018-02-23T03:57:47.619Z,30.27
2018-02-23T04:00:15.291Z,31.23
2018-02-23T04:02:42.979Z,28.57
2018-02-23T04:05:11.060Z,36.33
2018-02-23T04:07:38.728Z,28.97
2018-02-23T04:10:06.395Z,28.80
2018-02-23T04:12:34.059Z,31.70
2018-02-23T04:15:01.734Z,35.20
2018-02-23T04:17:29.396Z,32.03
2018-02-23T04:19:57.035Z,39.77
2018-02-23T04:22:24.724Z,38.53
2018-02-23T04:24:52.384Z,35.07
2018-02-23T04:27:20.056Z,47.63
2018-02-23T04:29:48.556Z,32.97
2018-02-23T04:32:16.255Z,36.63
2018-02-23T04:34:43.917Z,33.80
2018-02-23T04:37:11.581Z,33.63
2018-02-23T04:39:39.259Z,38.63
2018-02-23T04:42:06.927Z,38.67
2018-02-23T04:44:34.592Z,37.50
2018-02-23T04:47:02.260Z,41.43
2018-02-23T04:49:31.020Z,38.90
2018-02-23T04:51:58.688Z,36.80
2018-02-23T04:54:26.352Z,47.20
2018-02-23T04:56:54.047Z,42.62
2018-02-23T04:59:21.708Z,41.13
2018-02-23T05:01:49.452Z,44.83
2018-02-23T05:04:17.114Z,37.93
2018-02-23T05:06:44.785Z,42.50
2018-02-23T05:09:12.440Z,53.90
2018-02-23T05:11:40.122Z,49.40
2018-02-23T05:14:07.789Z,51.63
2018-02-23T05:16:35.486Z,42.00
2018-02-23T05:19:03.139Z,54.47
2018-02-23T05:21:30.808Z,53.87
2018-02-23T05:23:58.512Z,63.63
2018-02-23T05:26:26.202Z,51.92
2018-02-23T05:28:53.879Z,54.85
2018-02-23T05:31:21.969Z,47.33
2018-02-23T05:33:50.050Z,50.27
2018-02-23T05:36:18.129Z,64.57
2018-02-23T05:38:46.185Z,61.03
2018-02-23T05:41:14.266Z,62.03
2018-02-23T05:43:41.964Z,54.92
2018-02-23T05:46:09.640Z,58.10
2018-02-23T05:48:37.298Z,49.57
2018-02-23T05:51:04.971Z,55.47
2018-02-23T05:53:32.664Z,59.60
2018-02-23T05:56:00.356Z,54.42
2018-02-23T05:58:28.044Z,56.92
2018-02-23T06:00:55.738Z,65.82
2018-02-23T06:03:23.803Z,59.05
2018-02-23T06:05:51.494Z,56.53
2018-02-23T06:08:19.176Z,53.20
2018-02-23T06:10:46.860Z,63.70
2018-02-23T06:13:14.590Z,54.55
2018-02-23T06:15:47.929Z,62.08
2018-02-23T06:18:21.215Z,61.97
2018-02-23T06:20:48.907Z,67.68
2018-02-23T06:23:16.608Z,63.70
2018-02-23T06:25:44.372Z,60.05
2018-02-23T06:28:12.443Z,64.47
2018-02-23T06:30:40.216Z,54.70
2018-02-23T06:33:07.909Z,58.67
2018-02-23T06:35:35.570Z,66.60
2018-02-23T06:38:03.231Z,52.17
2018-02-23T06:40:30.895Z,68.70
2018-02-23T06:42:58.556Z,48.47
2018-02-23T06:45:27.020Z,70.80
2018-02-23T06:47:54.675Z,58.77
2018-02-23T06:50:22.539Z,60.77
2018-02-23T06:52:50.195Z,65.23
2018-02-23T06:55:18.243Z,56.53
2018-02-23T06:57:45.904Z,55.23
2018-02-23T07:00:13.545Z,58.20
2018-02-23T07:02:41.223Z,58.13
2018-02-23T07:05:08.882Z,59.53
2018-02-23T07:07:36.519Z,57.60
2018-02-23T07:10:04.182Z,66.57
2018-02-23T07:12:31.826Z,65.23
2018-02-23T07:14:59.478Z,57.17
2018-02-23T07:17:27.127Z,54.17
2018-02-23T07:19:54.794Z,58.60
2018-02-23T07:22:22.444Z,61.83
2018-02-23T07:24:50.527Z,63.67
2018-02-23T07:27:18.187Z,56.73
2018-02-23T07:29:45.847Z,58.30
2018-02-23T07:32:13.552Z,54.43
2018-02-23T07:34:41.205Z,68.77
2018-02-23T07:37:08.863Z,60.73
2018-02-23T07:39:36.507Z,59.50
2018-02-23T07:42:04.168Z,53.53
2018-02-23T07:44:31.832Z,58.03
2018-02-23T07:46:59.485Z,59.00
2018-02-23T07:49:27.175Z,61.43
2018-02-23T07:51:54.849Z,65.63
2018-02-23T07:54:22.518Z,59.53
2018-02-23T07:56:50.168Z,60.10
2018-02-23T07:59:17.820Z,64.77
2018-02-23T08:01:45.475Z,60.43
2018-02-23T08:04:13.124Z,60.77
2018-02-23T08:06:40.780Z,62.17
2018-02-23T08:09:08.440Z,64.67
2018-02-23T08:11:36.088Z,72.47
2018-02-23T08:14:04.148Z,59.30
2018-02-23T08:16:31.795Z,64.60
2018-02-23T08:18:59.471Z,62.43
2018-02-23T08:21:27.135Z,53.50
2018-02-23T08:23:54.780Z,63.70
2018-02-23T08:26:22.459Z,61.90
2018-02-23T08:28:50.122Z,56.47
2018-02-23T08:31:17.776Z,57.07
2018-02-23T08:33:45.425Z,67.77
2018-02-23T08:36:13.092Z,58.40
2018-02-23T08:38:40.746Z,58.43
2018-02-23T08:41:08.408Z,57.20
2018-02-23T08:43:41.531Z,60.13
2018-02-23T08:46:09.591Z,64.13
2018-02-23T08:48:37.639Z,60.87
2018-02-23T08:51:05.285Z,62.87
2018-02-23T08:53:32.928Z,56.70
2018-02-23T08:56:00.585Z,62.17
2018-02-23T08:58:28.333Z,57.17
2018-02-23T09:00:56.021Z,58.90
2018-02-23T09:03:23.674Z,61.10
2018-02-23T09:05:51.347Z,60.83
2018-02-23T09:08:19.007Z,64.63
2018-02-23T09:10:46.680Z,61.27
2018-02-23T09:13:14.327Z,55.77
2018-02-23T09:15:41.987Z,58.13
2018-02-23T09:18:09.646Z,54.80
2018-02-23T09:20:37.335Z,54.03
2018-02-23T09:23:04.980Z,53.60
2018-02-23T09:25:32.627Z,55.63
2018-02-23T09:28:00.277Z,49.37
2018-02-23T09:30:28.348Z,64.87
2018-02-23T09:32:57.118Z,49.83
2018-02-23T09:35:24.770Z,45.63
2018-02-23T09:37:52.419Z,41.93
2018-02-23T09:40:20.075Z,43.50
2018-02-23T09:42:47.802Z,52.30
2018-02-23T09:45:15.463Z,49.63
2018-02-23T09:47:43.124Z,48.40
2018-02-23T09:50:10.873Z,50.80
2018-02-23T09:52:38.536Z,48.90
2018-02-23T09:55:07.087Z,42.73
2018-02-23T09:57:34.766Z,42.17
2018-02-23T10:00:02.827Z,47.97
2018-02-23T10:02:30.878Z,44.60
2018-02-23T10:04:58.590Z,42.77
2018-02-23T10:07:26.214Z,45.37
2018-02-23T10:09:53.874Z,47.30
2018-02-23T10:12:21.522Z,43.73
2018-02-23T10:14:49.187Z,46.40
2018-02-23T10:17:16.825Z,38.70
2018-02-23T10:19:44.487Z,44.73
2018-02-23T10:22:12.155Z,36.23
2018-02-23T10:24:39.831Z,43.03
2018-02-23T10:27:21.984Z,40.93
2018-02-23T10:29:50.144Z,43.33
2018-02-23T10:32:18.731Z,40.80
2018-02-23T10:34:46.777Z,46.60
2018-02-23T10:37:14.435Z,43.77
2018-02-23T10:39:42.100Z,44.90
2018-02-23T10:42:09.758Z,44.63
2018-02-23T10:44:37.436Z,54.13
2018-02-23T10:47:05.088Z,46.57
2018-02-23T10:49:32.751Z,39.40
2018-02-23T10:52:00.395Z,37.53
2018-02-23T10:54:28.050Z,42.70
2018-02-23T10:56:55.762Z,35.70
2018-02-23T10:59:23.847Z,39.77
2018-02-23T11:01:52.092Z,40.90
2018-02-23T11:04:19.776Z,34.20
2018-02-23T11:06:47.822Z,58.17
2018-02-23T11:09:15.463Z,42.60
2018-02-23T11:11:43.132Z,33.77
2018-02-23T11:14:10.769Z,45.13
2018-02-23T11:16:38.440Z,43.00
2018-02-23T11:19:06.087Z,59.33
2018-02-23T11:21:33.748Z,35.97
2018-02-23T11:24:01.712Z,39.23
2018-02-23T11:26:29.359Z,40.03
2018-02-23T11:28:57.007Z,36.40
2018-02-23T11:31:25.058Z,36.00
2018-02-23T11:33:52.751Z,34.30
2018-02-23T11:36:20.412Z,39.00
2018-02-23T11:38:48.460Z,43.57
2018-02-23T11:41:16.116Z,40.47
2018-02-23T11:43:43.750Z,37.37
2018-02-23T11:46:11.410Z,35.80
2018-02-23T11:48:39.089Z,36.40
2018-02-23T11:51:06.760Z,37.60
2018-02-23T11:53:34.412Z,35.87
2018-02-23T11:56:02.075Z,31.77
2018-02-23T11:58:29.721Z,33.43
2018-02-23T12:00:57.394Z,30.53
2018-02-23T12:03:25.062Z,30.47
2018-02-23T12:05:52.724Z,41.87
2018-02-23T12:08:20.382Z,31.63
2018-02-23T12:10:48.085Z,32.77
2018-02-23T12:13:16.153Z,30.90
2018-02-23T12:15:44.220Z,32.30
2018-02-23T12:18:11.868Z,31.50
2018-02-23T12:20:39.527Z,28.47
2018-02-23T12:23:07.169Z,31.17
2018-02-23T12:25:34.843Z,34.17
2018-02-23T12:28:02.495Z,38.97
2018-02-23T12:30:30.180Z,28.87
2018-02-23T12:32:58.226Z,31.57
2018-02-23T12:35:25.941Z,38.73
2018-02-23T12:37:53.562Z,32.83
2018-02-23T12:40:21.228Z,30.77
2018-02-23T12:42:48.895Z,37.27
2018-02-23T12:45:16.588Z,31.67
2018-02-23T12:47:44.350Z,31.07
2018-02-23T12:50:12.042Z,37.07
2018-02-23T12:52:39.777Z,31.40
2018-02-23T12:55:07.497Z,36.90
2018-02-23T12:57:35.160Z,35.00
2018-02-23T13:00:02.834Z,36.03
2018-02-23T13:02:30.478Z,34.50
2018-02-23T13:04:58.140Z,33.43
2018-02-23T13:07:25.785Z,29.17
2018-02-23T13:09:53.450Z,32.20
2018-02-23T13:12:21.096Z,33.17
2018-02-23T13:14:54.386Z,28.63
2018-02-23T13:17:22.043Z,29.67
2018-02-23T13:19:49.687Z,30.23
2018-02-23T13:22:17.728Z,29.23
2018-02-23T13:24:45.402Z,35.63
2018-02-23T13:27:19.298Z,37.13
2018-02-23T13:29:46.973Z,27.40
2018-02-23T13:32:15.081Z,40.80
2018-02-23T13:34:42.741Z,29.30
2018-02-23T13:37:10.393Z,37.23
2018-02-23T13:39:38.099Z,35.03
2018-02-23T13:42:05.751Z,34.10
2018-02-23T13:44:33.407Z,47.73
2018-02-23T13:47:01.068Z,40.80
2018-02-23T13:49:28.731Z,37.70
2018-02-23T13:51:56.406Z,37.37
2018-02-23T13:54:24.082Z,35.50
2018-02-23T13:56:51.739Z,36.30
2018-02-23T13:59:19.402Z,36.57
2018-02-23T14:01:47.054Z,33.83
2018-02-23T14:04:14.706Z,39.77
2018-02-23T14:06:42.381Z,42.23
2018-02-23T14:09:10.060Z,42.57
2018-02-23T14:11:37.762Z,35.00
2018-02-23T14:14:05.373Z,32.20
2018-02-23T14:16:33.024Z,29.37
2018-02-23T14:19:00.672Z,27.87
2018-02-23T14:21:28.319Z,27.30
2018-02-23T14:23:55.980Z,30.37
2018-02-23T14:26:23.742Z,27.57
2018-02-23T14:28:51.408Z,29.10
2018-02-23T14:31:19.050Z,22.17
2018-02-23T14:33:47.251Z,24.93
2018-02-23T14:36:14.975Z,37.13
2018-02-23T14:38:43.040Z,29.13
2018-02-23T14:41:10.711Z,39.27
2018-02-23T14:43:38.770Z,30.73
2018-02-23T14:46:06.415Z,25.17
2018-02-23T14:48:45.835Z,30.00
2018-02-23T14:51:13.480Z,31.87
2018-02-23T14:53:41.145Z,24.63
2018-02-23T14:56:08.809Z,37.50
2018-02-23T14:58:36.454Z,30.70
2018-02-23T15:01:04.114Z,30.20
2018-02-23T15:03:31.787Z,31.27
2018-02-23T15:05:59.436Z,31.20
2018-02-23T15:08:27.079Z,23.93
2018-02-23T15:10:55.118Z,40.73
2018-02-23T15:13:22.773Z,36.50
2018-02-23T15:15:50.437Z,32.63
2018-02-23T15:18:18.085Z,25.03
2018-02-23T15:20:45.735Z,26.97
2018-02-23T15:23:13.394Z,29.53
2018-02-23T15:25:41.054Z,24.70
2018-02-23T15:28:08.706Z,31.60
2018-02-23T15:30:48.172Z,24.37
2018-02-23T15:33:15.831Z,35.90
2018-02-23T15:35:43.487Z,26.73
2018-02-23T15:38:11.241Z,29.63
2018-02-23T15:40:38.880Z,30.73
2018-02-23T15:43:06.937Z,31.07
2018-02-23T15:45:34.601Z,40.60
2018-02-23T15:48:18.956Z,32.77
2018-02-23T15:53:51.385Z,39.00
2018-02-23T15:56:19.764Z,30.47
2018-02-23T15:58:48.143Z,30.73
2018-02-23T16:01:16.503Z,35.23
2018-02-23T16:03:44.883Z,27.63
2018-02-23T16:06:13.264Z,35.33
2018-02-23T16:08:41.626Z,33.90
2018-02-23T16:11:10.393Z,29.20
2018-02-23T16:13:38.776Z,30.03
2018-02-23T16:16:07.135Z,33.00
2018-02-23T16:18:35.533Z,27.50
2018-02-23T16:21:03.917Z,33.40
2018-02-23T16:23:32.289Z,25.80
2018-02-23T16:26:00.636Z,23.87
2018-02-23T16:28:29.011Z,29.20
2018-02-23T16:30:57.380Z,26.60
2018-02-23T16:33:25.777Z,23.27
2018-02-23T16:35:54.174Z,20.37
2018-02-23T16:38:22.553Z,27.77
2018-02-23T16:40:50.916Z,18.60
2018-02-23T16:43:19.290Z,22.70
2018-02-23T16:45:47.672Z,28.77
2018-02-23T16:48:16.050Z,16.90
2018-02-23T16:50:44.424Z,19.10
2018-02-23T16:53:12.791Z,14.70
2018-02-23T16:55:41.172Z,16.40
2018-02-23T16:58:09.539Z,15.83
2018-02-23T17:00:37.907Z,18.03
2018-02-23T17:03:06.295Z,22.40
2018-02-23T17:05:34.672Z,17.60
2018-02-23T17:08:03.058Z,16.33
2018-02-23T17:10:31.418Z,22.50
2018-02-23T17:12:59.844Z,23.13
2018-02-23T17:15:28.222Z,17.93
2018-02-23T17:17:56.596Z,21.30
2018-02-23T17:20:24.991Z,26.63
2018-02-23T17:22:53.563Z,24.17
2018-02-23T17:25:21.927Z,24.13
2018-02-23T17:27:50.299Z,36.43
2018-02-23T17:30:18.669Z,47.93
2018-02-23T17:32:47.084Z,39.83
2018-02-23T17:35:15.466Z,20.37
2018-02-23T17:37:43.847Z,26.83
2018-02-23T17:40:12.224Z,27.40
2018-02-23T17:42:40.580Z,19.20
2018-02-23T17:45:08.965Z,19.03
2018-02-23T17:47:37.373Z,30.37
2018-02-23T17:50:05.745Z,21.03
2018-02-23T17:52:34.100Z,22.27
2018-02-23T17:55:02.480Z,21.97
2018-02-23T17:57:30.851Z,18.60
2018-02-23T17:59:59.240Z,18.60
2018-02-23T18:02:27.616Z,25.30
2018-02-23T18:04:55.995Z,19.77
2018-02-23T18:07:24.412Z,22.27
2018-02-23T18:09:52.779Z,19.13
2018-02-23T18:12:21.139Z,18.20
2018-02-23T18:14:49.493Z,17.23
2018-02-23T18:17:18.010Z,22.47
2018-02-23T18:19:46.385Z,14.10
2018-02-23T18:22:14.832Z,23.37
2018-02-23T18:24:43.200Z,14.30
2018-02-23T18:27:11.584Z,18.20
2018-02-23T18:29:39.969Z,22.33
2018-02-23T18:32:08.332Z,16.97
2018-02-23T18:34:36.736Z,18.23
2018-02-23T18:37:05.137Z,18.27
2018-02-23T18:39:33.515Z,31.90
2018-02-23T18:42:01.888Z,22.23
2018-02-23T18:44:30.313Z,17.40
2018-02-23T18:46:59.089Z,23.70
2018-02-23T18:49:27.873Z,15.00
2018-02-23T18:51:56.640Z,15.90
2018-02-23T18:54:25.039Z,17.77
2018-02-23T18:56:53.391Z,17.27
2018-02-23T18:59:21.770Z,23.03
2018-02-23T19:01:50.149Z,18.33
2018-02-23T19:04:18.512Z,18.27
2018-02-23T19:06:46.892Z,27.10
2018-02-23T19:09:15.268Z,21.87
2018-02-23T19:11:43.650Z,14.93
2018-02-23T19:14:12.019Z,21.20
2018-02-23T19:16:40.378Z,18.33
2018-02-23T19:19:08.748Z,21.90
2018-02-23T19:21:37.123Z,23.73
2018-02-23T19:24:05.903Z,19.80
2018-02-23T19:26:34.661Z,19.90
2018-02-23T19:29:03.039Z,16.70
2018-02-23T19:31:31.412Z,21.77
2018-02-23T19:33:59.820Z,22.33
2018-02-23T19:36:28.177Z,22.40
2018-02-23T19:38:56.551Z,26.23
2018-02-23T19:41:24.912Z,25.90
2018-02-23T19:43:53.289Z,20.50
2018-02-23T19:46:21.670Z,24.93
2018-02-23T19:48:50.044Z,29.10
2018-02-23T19:51:18.424Z,18.57
2018-02-23T19:53:46.805Z,22.73
2018-02-23T19:56:15.172Z,22.47
2018-02-23T19:58:43.561Z,37.53
2018-02-23T20:01:11.941Z,21.97
2018-02-23T20:03:40.362Z,36.13
2018-02-23T20:06:08.717Z,34.53
2018-02-23T20:08:37.089Z,32.27
2018-02-23T20:11:05.446Z,32.47
2018-02-23T20:13:33.816Z,26.87
2018-02-23T20:16:02.198Z,27.60
2018-02-23T20:18:30.680Z,27.53
2018-02-23T20:20:59.068Z,32.87
2018-02-23T20:23:27.582Z,31.93
2018-02-23T20:25:55.961Z,33.43
2018-02-23T20:28:24.447Z,23.63
2018-02-23T20:30:52.817Z,38.90
2018-02-23T20:33:21.222Z,28.17
2018-02-23T20:35:50.306Z,18.93
2018-02-23T20:38:18.935Z,32.13
2018-02-23T20:40:47.305Z,26.70
2018-02-23T20:43:15.690Z,26.37
2018-02-23T20:45:44.069Z,26.17
2018-02-23T20:48:12.529Z,35.57
2018-02-23T20:50:41.316Z,26.87
2018-02-23T20:53:09.724Z,28.80
2018-02-23T20:55:38.174Z,28.00
2018-02-23T20:58:06.952Z,29.30
2018-02-23T21:00:35.755Z,28.13
2018-02-23T21:03:04.123Z,25.83
2018-02-23T21:05:32.924Z,26.80
2018-02-23T21:08:01.892Z,24.10
2018-02-23T21:10:30.326Z,39.47
2018-02-23T21:12:58.697Z,33.93
2018-02-23T21:15:27.084Z,24.80
2018-02-23T21:17:55.516Z,21.63
2018-02-23T21:20:24.084Z,39.87
2018-02-23T21:22:52.443Z,27.03
2018-02-23T21:25:20.813Z,23.50
2018-02-23T21:27:49.239Z,31.10
2018-02-23T21:30:17.604Z,29.10
2018-02-23T21:32:45.998Z,30.67
2018-02-23T21:35:14.655Z,26.00
2018-02-23T21:37:43.027Z,16.87
2018-02-23T21:40:11.400Z,23.63
2018-02-23T21:42:39.934Z,25.23
2018-02-23T21:45:08.697Z,18.17
2018-02-23T21:47:37.137Z,24.70
2018-02-23T21:50:06.084Z,21.27
2018-02-23T21:52:34.561Z,27.23
2018-02-23T21:55:02.946Z,20.70
2018-02-23T21:57:31.359Z,19.30
2018-02-23T21:59:59.763Z,26.17
2018-02-23T22:02:28.409Z,29.27
2018-02-23T22:04:56.780Z,25.33
2018-02-23T22:07:25.558Z,25.03
2018-02-23T22:09:53.927Z,23.00
2018-02-23T22:12:22.296Z,31.37
2018-02-23T22:14:50.672Z,29.73
2018-02-23T22:17:19.092Z,26.43
2018-02-23T22:19:47.477Z,41.90
2018-02-23T22:22:15.843Z,20.30
2018-02-23T22:24:44.256Z,28.13
2018-02-23T22:27:12.624Z,23.03
2018-02-23T22:29:41.020Z,27.27
2018-02-23T22:32:09.377Z,27.03
2018-02-23T22:34:37.755Z,24.03
2018-02-23T22:37:06.133Z,23.20
2018-02-23T22:39:34.532Z,28.00
2018-02-23T22:42:02.950Z,31.73
2018-02-23T22:44:31.330Z,21.97
2018-02-23T22:47:00.114Z,32.47
2018-02-23T22:49:28.588Z,26.13
2018-02-23T22:51:56.982Z,26.70
2018-02-23T22:54:25.416Z,28.97
2018-02-23T22:56:53.769Z,29.17
2018-02-23T22:59:22.147Z,27.90
2018-02-23T23:01:50.520Z,28.07
2018-02-23T23:04:19.301Z,25.83
2018-02-23T23:06:48.073Z,24.10
2018-02-23T23:09:16.444Z,23.00
2018-02-23T23:11:44.828Z,28.40
2018-02-23T23:14:13.204Z,27.70
2018-02-23T23:16:41.561Z,30.53
2018-02-23T23:19:09.965Z,26.73
2018-02-23T23:21:38.332Z,44.60
2018-02-23T23:24:06.704Z,30.57
2018-02-23T23:26:35.926Z,30.83
2018-02-23T23:29:04.333Z,28.97
2018-02-23T23:31:32.705Z,37.07
2018-02-23T23:34:01.480Z,30.53
2018-02-23T23:36:30.264Z,27.27
2018-02-23T23:38:58.655Z,23.90
2018-02-23T23:41:28.260Z,26.27
2018-02-23T23:43:57.045Z,26.73
2018-02-23T23:46:25.436Z,23.20
2018-02-23T23:48:53.804Z,27.63
2018-02-23T23:51:22.566Z,23.30
2018-02-23T23:53:50.958Z,27.57
2018-02-23T23:56:19.324Z,26.50
2018-02-23T23:58:47.703Z,26.93
